Météo Nord-Pas-de-Calais   La météo au plus près de chez vous

Station météorologique

Observations météo à Scheibenhard (67443)

67443001 144 m Dernier relevé à 07:54
13.8°C
Humidité 85 % Vent 6.5 km/h

Journée consultée

Dimanche 6 Septembre 2026

Synthèse de la journée

Périodes de référence en UTC

Température minimale

11.3°C

à 06:06

18h 18h

Rafale maximale

19 km/h

à 03:42

00h 00h

Graphiques de la journée

Heure locale Réduire

Données détaillées

Relevés météo

Pas de 6 minutes Afficher les relevés infra-horaires
Relevés météo détaillés à Scheibenhard pour le Dimanche 6 Septembre 2026
Heure Température °C Point de rosée °C Humidité % Vent moyen (raf.), km/h Précipitations mm
07:54 13.8 °C 10.2 °C 79 % 9 km/h (14 km/h) 0 mm0 mm
07:48 13.4 °C 10 °C 80 % 10 km/h (14 km/h) 0 mm0 mm
07:42 13.1 °C 10.1 °C 82 % 10 km/h (15 km/h) 0 mm0 mm
07:36 12.7 °C 9.9 °C 83 % 9 km/h (15 km/h) 0 mm0 mm
07:30 12.4 °C 9.8 °C 84 % 9 km/h (15 km/h) 0 mm0 mm
07:24 12.1 °C 9.5 °C 84 % 8 km/h (13 km/h) 0 mm0 mm
07:18 11.9 °C 9.3 °C 84 % 6 km/h (12 km/h) 0 mm0 mm
07:12 11.8 °C 9.4 °C 85 % 6 km/h (12 km/h) 0 mm0 mm
07:06 11.5 °C 9.1 °C 85 % 6 km/h (11 km/h) 0 mm0 mm
07:00 11.4 °C 9 °C 85 % 7 km/h (11 km/h) 0 mm0 mm
06:54 11.4 °C 9 °C 85 % 6 km/h (10 km/h) 0 mm0 mm
06:48 11.4 °C 8.8 °C 84 % 5 km/h (10 km/h) 0 mm0 mm
06:42 11.6 °C 9 °C 84 % 4 km/h (8 km/h) 0 mm0 mm
06:36 11.5 °C 8.9 °C 84 % 6 km/h (11 km/h) 0 mm0 mm
06:30 11.4 °C 8.6 °C 83 % 7 km/h (11 km/h) 0 mm0 mm
06:24 11.4 °C 8.6 °C 83 % 8 km/h (12 km/h) 0 mm0 mm
06:18 11.4 °C 8.6 °C 83 % 8 km/h (13 km/h) 0 mm0 mm
06:12 11.4 °C 8.4 °C 82 % 8 km/h (13 km/h) 0 mm0 mm
06:06 11.3 °C 8.3 °C 82 % 7 km/h (12 km/h) 0 mm0 mm
06:00 11.5 °C 8.4 °C 81 % 6 km/h (9 km/h) 0 mm0 mm
05:54 11.7 °C 8.4 °C 80 % 6 km/h (8 km/h) 0 mm0 mm
05:48 11.8 °C 8.3 °C 79 % 5 km/h (8 km/h) 0 mm0 mm
05:42 11.9 °C 8.4 °C 79 % 4 km/h (7 km/h) 0 mm0 mm
05:36 12.1 °C 8.6 °C 79 % 5 km/h (11 km/h) 0 mm0 mm
05:30 12.1 °C 8.6 °C 79 % 7 km/h (12 km/h) 0 mm0 mm
05:24 12.2 °C 8.5 °C 78 % 7 km/h (12 km/h) 0 mm0 mm
05:18 12.2 °C 8.5 °C 78 % 7 km/h (12 km/h) 0 mm0 mm
05:12 12.2 °C 8.3 °C 77 % 7 km/h (12 km/h) 0 mm0 mm
05:06 12.3 °C 8.4 °C 77 % 8 km/h (13 km/h) 0 mm0 mm
05:00 12.2 °C 8.3 °C 77 % 8 km/h (13 km/h) 0 mm0 mm
04:54 12.1 °C 8.2 °C 77 % 8 km/h (12 km/h) 0 mm0 mm
04:48 12.2 °C 8.3 °C 77 % 7 km/h (11 km/h) 0 mm0 mm
04:42 12 °C 8.3 °C 78 % 5 km/h (9 km/h) 0 mm0 mm
04:36 11.6 °C 8.1 °C 79 % 4 km/h (9 km/h) 0 mm0 mm
04:30 11.5 °C 8 °C 79 % 4 km/h (6 km/h) 0 mm0 mm
04:24 11.4 °C 7.9 °C 79 % 5 km/h (6 km/h) 0 mm0 mm
04:18 11.5 °C 7.8 °C 78 % 5 km/h (7 km/h) 0 mm0 mm
04:12 11.6 °C 7.9 °C 78 % 5 km/h (8 km/h) 0 mm0 mm
04:06 11.7 °C 7.8 °C 77 % 6 km/h (14 km/h) 0 mm0 mm
04:00 11.9 °C 7.8 °C 76 % 10 km/h (17 km/h) 0 mm0 mm
03:54 12.2 °C 8.1 °C 76 % 12 km/h (17 km/h) 0 mm0 mm
03:48 12.5 °C 8.2 °C 75 % 13 km/h (19 km/h) 0 mm0 mm
03:42 12.7 °C 8.4 °C 75 % 12 km/h (19 km/h) 0 mm0 mm
03:36 12.4 °C 8.1 °C 75 % 9 km/h (15 km/h) 0 mm0 mm
03:30 12.4 °C 8.1 °C 75 % 7 km/h (10 km/h) 0 mm0 mm
03:24 12.5 °C 8 °C 74 % 8 km/h (11 km/h) 0 mm0 mm
03:18 12.6 °C 7.9 °C 73 % 6 km/h (10 km/h) 0 mm0 mm
03:12 12.9 °C 8 °C 72 % 4 km/h (7 km/h) 0 mm0 mm
03:06 13.1 °C 8 °C 71 % 2 km/h (6 km/h) 0 mm0 mm
03:00 13.1 °C 8 °C 71 % 4 km/h (7 km/h) 0 mm0 mm
02:54 13.3 °C 7.9 °C 70 % 4 km/h (9 km/h) 0 mm0 mm
02:48 13.4 °C 8 °C 70 % 5 km/h (10 km/h) 0 mm0 mm
02:42 13.5 °C 8.1 °C 70 % 6 km/h (10 km/h) 0 mm0 mm
02:36 13.3 °C 7.7 °C 69 % 8 km/h (11 km/h) 0 mm0 mm
02:30 13.4 °C 7.8 °C 69 % 7 km/h (10 km/h) 0 mm0 mm
02:24 13.5 °C 7.7 °C 68 % 8 km/h (11 km/h) 0 mm0 mm
02:18 13.6 °C 7.8 °C 68 % 8 km/h (11 km/h) 0 mm0 mm
02:12 13.7 °C 7.5 °C 66 % 7 km/h (11 km/h) 0 mm0 mm
02:06 13.8 °C 7.3 °C 65 % 6 km/h (10 km/h) 0 mm0 mm
02:00 14 °C 7.1 °C 63 % 6 km/h (9 km/h) 0 mm0 mm
01:54 14.4 °C 7.2 °C 62 % 3 km/h (6 km/h) 0 mm0 mm
01:48 14.6 °C 7.2 °C 61 % 0 km/h (4 km/h) 0 mm0 mm
01:42 14.6 °C 7.2 °C 61 % 3 km/h (5 km/h) 0 mm0 mm
01:36 14.8 °C 7.1 °C 60 % 4 km/h (6 km/h) 0 mm0 mm
01:30 15.1 °C 7.1 °C 59 % 4 km/h (6 km/h) 0 mm0 mm
01:24 15.2 °C 7.2 °C 59 % 4 km/h (5 km/h) 0 mm0 mm
01:18 15 °C 7.3 °C 60 % 2 km/h (5 km/h) 0 mm0 mm
01:12 14.7 °C 7.3 °C 61 % 0 km/h (5 km/h) 0 mm0 mm
01:06 15.2 °C 7.2 °C 59 % 4 km/h (6 km/h) 0 mm0 mm
01:00 15.4 °C 7.2 °C 58 % 4 km/h (6 km/h) 0 mm0 mm
00:54 15.5 °C 7 °C 57 % 3 km/h (5 km/h) 0 mm0 mm
00:48 15.3 °C 7.1 °C 58 % 3 km/h (5 km/h) 0 mm0 mm
00:42 15.2 °C 7.2 °C 59 % 4 km/h (5 km/h) 0 mm0 mm
00:36 15.4 °C 7.2 °C 58 % 4 km/h (6 km/h) 0 mm0 mm
00:30 15.1 °C 7.4 °C 60 % 4 km/h (6 km/h) 0 mm0 mm
00:24 15 °C 7.5 °C 61 % 4 km/h (6 km/h) 0 mm0 mm
00:18 14.8 °C 7.6 °C 62 % 5 km/h (8 km/h) 0 mm0 mm
00:12 14.9 °C 7.7 °C 62 % 5 km/h (8 km/h) 0 mm0 mm
00:06 15.1 °C 8.1 °C 63 % 5 km/h (11 km/h) 0 mm0 mm
00:00 15.4 °C 8.2 °C 62 % 6 km/h (11 km/h) 0 mm0 mm

Données via Météo-France

Relevés météo à Scheibenhard

Cette page rassemble les observations de la station de Scheibenhard : température, humidité, vent, précipitations et pression atmosphérique. Les graphiques facilitent le suivi de la journée, tandis que le tableau donne accès aux mesures horaires et infra-horaires disponibles.

Pour replacer ces mesures dans leur contexte, consultez la climatologie de Scheibenhard ainsi que ses normales et records. Retrouvez aussi la carte des observations météo en temps réel.